Terminal Aerodrome Forecast
Issued by NWS

Home | Current Version | Previous Version | Text Only | Print | Product List | Glossary On
Versions: 1 2 3 4 5 6 7 8 9 10 11 12 13 14 15 16 17 18 19 20 21
000
FTUS43 KGRB 221134
TAFCWA
TAF
KCWA 221134Z 2212/2312 10004KT P6SM OVC090
     FM222000 10007G15KT P6SM OVC050
     FM230200 10008G15KT 5SM -SN OVC045
     FM230300 11009G16KT 3SM -SN OVC025
     FM230400 11009G17KT 2SM -SN OVC012
     FM230600 12009G17KT 1SM -SN BR OVC008
     FM230900 13006KT 3/4SM -SN BR OVC004=

USA.gov is the U.S. government's official web portal to all federal, state and local government web resources and services.